Flight Track Log - Related Links

Times and Time Zones

All times are in EDT time to prevent confusion due to time zone crossing. See the SWA2975 flight status page for this flight to view local times or setup timezone preferences in your user account.

Time Position Orientation Groundspeed Altitude Reporting Facility
EDT Latitude Longitude Course Direction KTS MPH feet Rate Location/Type
Tue 06:31:42 PM 40.8030 -111.9760 354° North 180 207 4,400  Level FlightAware ADS-B
Tue 06:32:08 PM 40.8250 -111.9790 354° North 191 220 5,400 1,560 Climbing FlightAware ADS-B
Tue 06:32:32 PM 40.8480 -111.9830 353° North 221 254 5,700 1,125 Climbing FlightAware ADS-B
Tue 06:32:56 PM 40.8740 -111.9860 355° North 243 280 6,300 1,731 Climbing FlightAware ADS-B
Tue 06:33:24 PM 40.9070 -111.9910 353° North 260 299 7,200 2,182 Climbing FlightAware ADS-B
Tue 06:33:40 PM 40.9260 -111.9940 353° North 258 297 7,900 2,182 Climbing FlightAware ADS-B
Tue 06:34:08 PM 40.9610 -111.9990 354° North 276 318 8,800 2,057 Climbing FlightAware ADS-B
Tue 06:34:50 PM 41.0060 -111.9710 25° Northeast 283 326 10,300 2,038 Climbing FlightAware ADS-B
Tue 06:35:01 PM 41.0110 -111.9520 71° East 290 334 10,600 2,333 Climbing FlightAware ADS-B
Tue 06:35:44 PM 41.0140 -111.8750 87° East 296 341 12,400 2,541 Climbing FlightAware ADS-B
Tue 06:36:26 PM 41.0190 -111.7990 85° East 300 345 14,200 2,118 Climbing FlightAware ADS-B
Tue 06:37:09 PM 41.0230 -111.7200 86° East 323 372 15,400 1,899 Climbing FlightAware ADS-B
Tue 06:37:45 PM 41.0270 -111.6450 86° East 333 383 16,700 1,974 Climbing FlightAware ADS-B
Tue 06:38:25 PM 41.0340 -111.5620 84° East 345 397 17,900 1,923 Climbing FlightAware ADS-B
Tue 06:39:03 PM 41.0510 -111.4840 74° East 356 410 19,200 1,109 Climbing FlightAware ADS-B
Tue 06:39:57 PM 41.0760 -111.3790 72° East 371 427 19,600 258 Climbing FlightAware ADS-B
Tue 06:40:36 PM 41.0940 -111.3070 72° East 371 427 19,600  Level FlightAware ADS-B
Tue 06:41:24 PM 41.1160 -111.2190 72° East 371 427 19,600  Level FlightAware ADS-B
Tue 06:42:01 PM 41.1320 -111.1510 73° East 371 427 19,600  Level FlightAware ADS-B
Tue 06:42:38 PM 41.1490 -111.0820 72° East 371 427 19,600  Level FlightAware ADS-B
Tue 06:43:26 PM 41.1710 -110.9940 72° East 371 427 19,600 4,142 Level FlightAware ADS-B
Tue 06:44:31 PM 41.2300 -110.6944 72° East 430 495 27,400 4,238 Climbing Salt Lake Center
Tue 06:45:32 PM 41.2639 -110.5419 73° East 447 514 28,500 1,366 Climbing Salt Lake Center
Tue 06:46:34 PM 41.3039 -110.3625 73° East 453 521 30,200 1,548 Climbing Salt Lake Center
Tue 06:47:36 PM 41.3367 -110.2106 74° East 449 517 31,700 1,366 Climbing Salt Lake Center
Tue 06:48:37 PM 41.3692 -110.0611 74° East 442 509 33,000 1,317 Climbing Salt Lake Center
Tue 06:49:39 PM 41.4067 -109.8844 74° East 442 509 34,400 1,210 Climbing Salt Lake Center
Tue 06:50:41 PM 41.4392 -109.7356 74° East 439 505 35,500 1,113 Climbing Salt Lake Center
Tue 06:51:43 PM 41.4761 -109.5622 74° East 435 501 36,700 732 Climbing Salt Lake Center
Tue 06:52:44 PM 41.5072 -109.4158 74° East 430 495 37,000 146 Climbing Salt Lake Center
Tue 06:53:46 PM 41.5450 -109.2444 74° East 427 491 37,000  Level Salt Lake Center
Tue 06:54:48 PM 41.5772 -109.0925 74° East 432 497 37,000  Level Salt Lake Center
Tue 06:55:49 PM 41.5981 -108.9406 80° East 431 496 37,000  Level Salt Lake Center
Tue 06:56:51 PM 41.6103 -108.7639 85° East 427 491 37,000  Level Salt Lake Center
Tue 06:57:59 PM 41.6233 -108.5836 84° East 430 495 37,000  Level Denver Center
Tue 06:58:54 PM 41.6350 -108.4586 83° East 431 496 37,000  Level Salt Lake Center
Tue 06:59:56 PM 41.6472 -108.2792 85° East 435 501 37,000  Level Salt Lake Center
Tue 07:00:57 PM 41.6575 -108.1258 85° East 434 499 37,000  Level Salt Lake Center
Tue 07:01:59 PM 41.6706 -107.9444 84° East 437 503 37,000  Level Salt Lake Center
Tue 07:03:00 PM 41.6811 -107.7886 85° East 438 504 37,000  Level Salt Lake Center
Tue 07:04:02 PM 41.6911 -107.6325 85° East 441 507 37,000  Level Salt Lake Center
Tue 07:09:20 PM 41.7470 -106.7600 85° East 434 499 37,000  Level FlightAware ADS-B
Tue 07:09:49 PM 41.7510 -106.6800 86° East 436 502 37,000  Level FlightAware ADS-B
Tue 07:10:32 PM 41.7580 -106.5780 85° East 436 502 37,000  Level FlightAware ADS-B
Tue 07:11:19 PM 41.7650 -106.4380 86° East 436 502 37,000  Level FlightAware ADS-B
Tue 07:11:57 PM 41.7710 -106.3390 85° East 437 503 37,000  Level FlightAware ADS-B
Tue 07:12:43 PM 41.7780 -106.2110 86° East 437 503 37,000  Level FlightAware ADS-B
Tue 07:13:25 PM 41.7840 -106.0990 86° East 437 503 37,000  Level FlightAware ADS-B
Tue 07:14:04 PM 41.7890 -105.9970 86° East 438 504 37,000  Level FlightAware ADS-B
Tue 07:14:39 PM 41.7940 -105.8990 86° East 438 504 37,000  Level FlightAware ADS-B
Tue 07:15:25 PM 41.8010 -105.7750 86° East 439 505 37,000  Level FlightAware ADS-B
Tue 07:16:19 PM 41.8080 -105.6320 86° East 440 506 37,000  Level FlightAware ADS-B
Tue 07:16:56 PM 41.8130 -105.5290 86° East 440 506 37,000  Level FlightAware ADS-B
Tue 07:17:53 PM 41.8200 -105.3720 87° East 437 503 37,000  Level FlightAware ADS-B
Tue 07:18:32 PM 41.8250 -105.2690 86° East 433 498 37,000  Level FlightAware ADS-B
Tue 07:19:15 PM 41.8310 -105.1520 86° East 433 498 37,000  Level FlightAware ADS-B
Tue 07:19:53 PM 41.8350 -105.0560 87° East 433 498 37,000  Level FlightAware ADS-B
Tue 07:20:39 PM 41.8410 -104.9270 86° East 430 495 37,000  Level FlightAware ADS-B
Tue 07:21:14 PM 41.8440 -104.8390 87° East 429 494 37,000  Level FlightAware ADS-B
Tue 07:21:57 PM 41.8490 -104.7220 87° East 430 495 37,000  Level FlightAware ADS-B
Tue 07:22:37 PM 41.8540 -104.6150 86° East 431 496 37,000  Level FlightAware ADS-B
Tue 07:23:19 PM 41.8580 -104.5080 87° East 432 497 37,000  Level FlightAware ADS-B
Tue 07:24:01 PM 41.8630 -104.3920 87° East 433 498 37,000  Level FlightAware ADS-B
Tue 07:24:37 PM 41.8660 -104.2940 88° East 434 499 37,000  Level FlightAware ADS-B
Tue 07:25:26 PM 41.8710 -104.1630 87° East 434 499 37,000  Level FlightAware ADS-B
Tue 07:26:09 PM 41.8750 -104.0450 87° East 433 498 37,000  Level FlightAware ADS-B
Tue 07:26:46 PM 41.8790 -103.9490 87° East 432 497 37,000  Level FlightAware ADS-B
Tue 07:27:26 PM 41.8820 -103.8430 88° East 432 497 37,000  Level FlightAware ADS-B
Tue 07:28:09 PM 41.8860 -103.7270 87° East 432 497 37,000  Level FlightAware ADS-B
Tue 07:28:39 PM 41.8890 -103.6460 87° East 433 498 37,000  Level FlightAware ADS-B
Tue 07:29:25 PM 41.8930 -103.5210 87° East 436 502 37,000  Level FlightAware ADS-B
Tue 07:30:07 PM 41.8880 -103.4060 93° East 448 516 37,000  Level FlightAware ADS-B
Tue 07:30:49 PM 41.8800 -103.2900 95° East 444 511 37,000  Level FlightAware ADS-B
Tue 07:31:29 PM 41.8810 -103.1820 89° East 439 505 37,000  Level FlightAware ADS-B
Tue 07:32:11 PM 41.8830 -103.0680 89° East 439 505 37,000  Level FlightAware ADS-B
Tue 07:33:08 PM 41.8860 -102.9150 88° East 438 504 37,000  Level FlightAware ADS-B
Tue 07:33:45 PM 41.8870 -102.8180 89° East 437 503 37,000  Level FlightAware ADS-B
Tue 07:34:49 PM 41.8910 -102.6700 88° East 437 503 37,000  Level FlightAware ADS-B
Tue 07:35:25 PM 41.8930 -102.5870 88° East 437 503 37,000  Level FlightAware ADS-B
Tue 07:36:27 PM 41.8970 -102.4440 88° East 437 503 37,000  Level FlightAware ADS-B
Tue 07:37:03 PM 41.8990 -102.3610 88° East 437 503 37,000  Level FlightAware ADS-B
Tue 07:37:39 PM 41.9010 -102.2780 88° East 437 503 37,000  Level FlightAware ADS-B
Tue 07:38:25 PM 41.9040 -102.1720 88° East 437 503 37,000  Level FlightAware ADS-B
Tue 07:39:05 PM 41.8980 -101.9700 92° East 431 496 37,000  Level FlightAware ADS-B
Tue 07:39:41 PM 41.8990 -101.8880 89° East 431 496 37,000  Level FlightAware ADS-B
Tue 07:40:30 PM 41.9000 -101.7770 89° East 431 496 37,000  Level FlightAware ADS-B
Tue 07:41:06 PM 41.9010 -101.6950 89° East 431 496 37,000  Level FlightAware ADS-B
Tue 07:41:55 PM 41.9030 -101.5830 89° East 431 496 37,000  Level FlightAware ADS-B
Tue 07:42:32 PM 41.9040 -101.4990 89° East 431 496 37,000  Level FlightAware ADS-B
Tue 07:43:08 PM 41.9050 -101.4170 89° East 431 496 37,000  Level FlightAware ADS-B
Tue 07:43:57 PM 41.9060 -101.3060 89° East 431 496 37,000  Level FlightAware ADS-B
Tue 07:44:33 PM 41.9070 -101.2240 89° East 431 496 37,000  Level FlightAware ADS-B
Tue 07:45:09 PM 41.9080 -101.1420 89° East 431 496 37,000  Level FlightAware ADS-B
Tue 07:45:47 PM 41.9100 -101.0550 88° East 431 496 37,000  Level FlightAware ADS-B
Tue 07:46:33 PM 41.9110 -100.9500 89° East 431 496 37,000  Level FlightAware ADS-B
Tue 07:47:10 PM 41.9120 -100.8660 89° East 431 496 37,000  Level FlightAware ADS-B
Tue 07:47:59 PM 41.9130 -100.7550 89° East 431 496 37,000  Level FlightAware ADS-B
Tue 07:48:36 PM 41.9150 -100.6700 88° East 431 496 37,000  Level FlightAware ADS-B
Tue 07:49:54 PM 41.9008 -100.2650 88° East 432 497 37,000  Level Minneapolis Center
Tue 07:50:57 PM 41.8972 -100.0864 91° East 434 499 37,000  Level Denver Center
Tue 07:52:00 PM 41.8958 -99.9067 91° East 432 497 37,000  Level Denver Center
Tue 07:53:02 PM 41.8958 -99.7536 90° East 430 495 37,000  Level Denver Center
Tue 07:54:04 PM 41.8925 -99.5881 91° East 434 499 37,000  Level Denver Center
Tue 07:55:06 PM 41.8917 -99.4256 90° East 435 501 37,000  Level Denver Center
Tue 07:56:08 PM 41.8892 -99.2614 91° East 437 503 37,000  Level Denver Center
Tue 07:57:08 PM 41.8869 -99.0972 91° East 439 505 37,000  Level Minneapolis Center
Tue 08:02:54 PM 41.8660 -98.1260 91° East 440 506 37,000  Level FlightAware ADS-B
Tue 08:03:34 PM 41.8640 -98.0150 91° East 439 505 37,000  Level FlightAware ADS-B
Tue 08:04:06 PM 41.8610 -97.9310 93° East 438 504 37,000  Level FlightAware ADS-B
Tue 08:04:56 PM 41.8570 -97.7940 92° East 439 505 37,000  Level FlightAware ADS-B
Tue 08:05:37 PM 41.8550 -97.6980 92° East 439 505 37,000  Level FlightAware ADS-B
Tue 08:06:34 PM 41.8500 -97.5260 92° East 444 511 37,000  Level FlightAware ADS-B
Tue 08:07:10 PM 41.8470 -97.4280 92° East 444 511 37,000  Level FlightAware ADS-B
Tue 08:08:12 PM 41.8410 -97.2600 93° East 443 510 37,000  Level FlightAware ADS-B
Tue 08:08:44 PM 41.8380 -97.1710 93° East 441 507 37,000  Level FlightAware ADS-B
Tue 08:09:22 PM 41.8350 -97.0660 92° East 440 506 37,000  Level FlightAware ADS-B
Tue 08:10:08 PM 41.8310 -96.9410 92° East 440 506 37,000  Level FlightAware ADS-B
Tue 08:10:42 PM 41.8270 -96.8470 93° East 448 516 37,000  Level FlightAware ADS-B
Tue 08:11:25 PM 41.8230 -96.7290 93° East 447 514 37,000  Level FlightAware ADS-B
Tue 08:12:08 PM 41.8180 -96.6090 93° East 444 511 37,000  Level FlightAware ADS-B
Tue 08:12:48 PM 41.8140 -96.4980 93° East 444 511 37,000  Level FlightAware ADS-B
Tue 08:13:30 PM 41.8100 -96.3860 93° East 444 511 37,000  Level FlightAware ADS-B
Tue 08:14:14 PM 41.8050 -96.2620 93° East 449 517 37,000  Level FlightAware ADS-B
Tue 08:14:54 PM 41.8000 -96.1520 93° East 451 519 37,000  Level FlightAware ADS-B
Tue 08:15:39 PM 41.7950 -96.0280 93° East 450 518 37,000  Level FlightAware ADS-B
Tue 08:16:20 PM 41.7900 -95.9150 93° East 449 517 37,000  Level FlightAware ADS-B
Tue 08:17:00 PM 41.7850 -95.8030 93° East 448 516 37,000  Level FlightAware ADS-B
Tue 08:17:44 PM 41.7790 -95.6820 94° East 448 516 37,000  Level FlightAware ADS-B
Tue 08:18:56 PM 41.7710 -95.4970 93° East 450 518 37,000  Level FlightAware ADS-B
Tue 08:19:32 PM 41.7680 -95.4120 93° East 450 518 37,000  Level FlightAware ADS-B
Tue 08:20:16 PM 41.7600 -95.2730 94° East 448 516 37,000  Level FlightAware ADS-B
Tue 08:20:53 PM 41.7570 -95.1860 93° East 448 516 37,000  Level FlightAware ADS-B
Tue 08:21:41 PM 41.7530 -95.0730 93° East 448 516 37,000  Level FlightAware ADS-B
Tue 08:22:17 PM 41.7490 -94.9880 94° East 448 516 37,000  Level FlightAware ADS-B
Tue 08:22:59 PM 41.7310 -94.8430 99° East 424 488 37,000  Level FlightAware ADS-B
Tue 08:23:41 PM 41.6740 -94.7450 128° Southeast 429 494 37,000  Level FlightAware ADS-B
Tue 08:24:29 PM 41.6200 -94.6370 124° Southeast 430 495 37,000  Level FlightAware ADS-B
Tue 08:25:29 PM 41.5650 -94.5260 123° Southeast 429 494 37,000  Level FlightAware ADS-B
Tue 08:26:05 PM 41.5320 -94.4570 123° Southeast 429 494 37,000  Level FlightAware ADS-B
Tue 08:26:19 PM 41.5240 -94.3860 99° East 424 488 37,000  Level FlightAware ADS-B
Tue 08:27:07 PM 41.5120 -94.2690 98° East 422 486 37,000  Level FlightAware ADS-B
Tue 08:27:51 PM 41.5060 -94.1450 94° East 420 483 37,000  Level FlightAware ADS-B
Tue 08:28:43 PM 41.4990 -94.0090 94° East 436 502 37,000  Level FlightAware ADS-B
Tue 08:29:19 PM 41.4930 -93.9110 95° East 448 516 37,000  Level FlightAware ADS-B
Tue 08:30:21 PM 41.4830 -93.7400 94° East 451 519 37,000  Level FlightAware ADS-B
Tue 08:30:57 PM 41.4780 -93.6490 94° East 451 519 37,000  Level FlightAware ADS-B
Tue 08:31:35 PM 41.4710 -93.5370 95° East 450 518 37,000  Level FlightAware ADS-B
Tue 08:32:21 PM 41.4630 -93.4100 95° East 447 514 37,000  Level FlightAware ADS-B
Tue 08:33:01 PM 41.4560 -93.2990 95° East 441 507 37,000  Level FlightAware ADS-B
Tue 08:33:45 PM 41.4490 -93.1800 94° East 439 505 37,000  Level FlightAware ADS-B
Tue 08:34:24 PM 41.4420 -93.0770 95° East 442 509 37,000  Level FlightAware ADS-B
Tue 08:35:07 PM 41.4340 -92.9570 95° East 450 518 37,000  Level FlightAware ADS-B
Tue 08:35:49 PM 41.4270 -92.8430 95° East 449 517 37,000  Level FlightAware ADS-B
Tue 08:36:31 PM 41.4190 -92.7260 95° East 450 518 37,000  Level FlightAware ADS-B
Tue 08:37:12 PM 41.4110 -92.6160 96° East 448 516 37,000 -304 Level FlightAware ADS-B
Tue 08:37:50 PM 41.4220 -92.5180 81° East 449 517 36,600 -857 Descending FlightAware ADS-B
Tue 08:38:36 PM 41.4590 -92.4050 66° East 444 511 35,800 -1,034 Descending FlightAware ADS-B
Tue 08:39:17 PM 41.4880 -92.2940 71° East 444 511 35,100 -1,000 Descending FlightAware ADS-B
Tue 08:40:00 PM 41.5010 -92.1790 81° East 431 496 34,400 -1,012 Descending FlightAware ADS-B
Tue 08:40:40 PM 41.4970 -92.0760 93° East 424 488 33,700 -1,037 Descending FlightAware ADS-B
Tue 08:41:21 PM 41.4840 -91.9740 100° East 421 484 33,000 -1,023 Descending FlightAware ADS-B
Tue 08:42:08 PM 41.4680 -91.8480 100° East 413 475 32,200 -1,037 Descending FlightAware ADS-B
Tue 08:42:42 PM 41.4570 -91.7650 100° East 412 474 31,600 -1,054 Descending FlightAware ADS-B
Tue 08:43:22 PM 41.4450 -91.6650 99° East 411 473 30,900 -977 Descending FlightAware ADS-B
Tue 08:44:08 PM 41.4300 -91.5520 100° East 408 470 30,200 -1,000 Descending FlightAware ADS-B
Tue 08:44:40 PM 41.4200 -91.4710 99° East 406 467 29,600 -800 Descending FlightAware ADS-B
Tue 08:45:38 PM 41.4020 -91.3300 100° East 399 459 29,000 -367 Descending FlightAware ADS-B
Tue 08:46:18 PM 41.3890 -91.2340 100° East 399 459 29,000  Level FlightAware ADS-B
Tue 08:47:01 PM 41.3750 -91.1310 100° East 401 461 29,000 -353 Level FlightAware ADS-B
Tue 08:47:43 PM 41.3620 -91.0280 100° East 394 453 28,500 -1,299 Descending FlightAware ADS-B
Tue 08:48:38 PM 41.3450 -90.9050 100° East 385 443 26,900 -1,714 Descending FlightAware ADS-B
Tue 08:49:21 PM 41.3310 -90.8010 100° East 390 449 25,700 -1,929 Descending FlightAware ADS-B
Tue 08:50:02 PM 41.3180 -90.7020 100° East 388 447 24,200 -1,586 Descending FlightAware ADS-B
Tue 08:50:48 PM 41.3020 -90.5920 101° East 394 453 23,400 -742 Descending FlightAware ADS-B
Tue 08:51:39 PM 41.2860 -90.4730 100° East 392 451 23,000 -264 Descending FlightAware ADS-B
Tue 08:52:19 PM 41.2730 -90.3780 100° East 390 449 23,000  Level FlightAware ADS-B
Tue 08:53:08 PM 41.2570 -90.2620 100° East 389 448 23,000  Level FlightAware ADS-B
Tue 08:53:38 PM 41.2470 -90.1910 101° East 391 450 23,000 -240 Level FlightAware ADS-B
Tue 08:54:23 PM 41.2320 -90.0850 101° East 415 478 22,700 -1,348 Descending FlightAware ADS-B
Tue 08:55:07 PM 41.2150 -89.9720 101° East 407 468 21,000 -2,296 Descending FlightAware ADS-B
Tue 08:55:44 PM 41.2030 -89.8840 100° East 400 460 19,600 -2,203 Descending FlightAware ADS-B
Tue 08:56:26 PM 41.1890 -89.7850 101° East 390 449 18,100 -2,292 Descending FlightAware ADS-B
Tue 08:57:13 PM 41.1720 -89.6720 101° East 386 444 16,200 -1,793 Descending FlightAware ADS-B
Tue 08:57:53 PM 41.1800 -89.5800 83° East 379 436 15,500 -1,037 Descending FlightAware ADS-B
Tue 08:58:34 PM 41.2060 -89.4940 68° East 376 433 14,800 -1,013 Descending FlightAware ADS-B
Tue 08:59:10 PM 41.2290 -89.4160 69° East 371 427 14,200 -947 Descending FlightAware ADS-B
Tue 08:59:50 PM 41.2530 -89.3350 68° East 367 422 13,600 -987 Descending FlightAware ADS-B
Tue 09:00:29 PM 41.2770 -89.2550 68° East 356 410 12,900 -1,047 Descending FlightAware ADS-B
Tue 09:01:16 PM 41.3060 -89.1570 68° East 338 389 12,100 -1,023 Descending FlightAware ADS-B
Tue 09:01:57 PM 41.3270 -89.0830 69° East 328 377 11,400 -1,000 Descending FlightAware ADS-B
Tue 09:02:40 PM 41.3510 -88.9990 69° East 323 372 10,700 -1,024 Descending FlightAware ADS-B
Tue 09:03:19 PM 41.3710 -88.9330 68° East 307 353 10,000 -1,114 Descending FlightAware ADS-B
Tue 09:03:50 PM 41.3880 -88.8740 69° East 294 338 9,400 -1,082 Descending FlightAware ADS-B
Tue 09:04:20 PM 41.4020 -88.8250 69° East 289 333 8,900 -1,034 Descending FlightAware ADS-B
Tue 09:04:48 PM 41.4140 -88.7820 70° East 286 329 8,400 -1,071 Descending FlightAware ADS-B
Tue 09:05:16 PM 41.4280 -88.7330 69° East 284 327 7,900 -1,000 Descending FlightAware ADS-B
Tue 09:05:42 PM 41.4410 -88.6900 68° East 281 323 7,500 -923 Descending FlightAware ADS-B
Tue 09:05:55 PM 41.4460 -88.6700 72° East 280 322 7,300 -857 Descending FlightAware ADS-B
Tue 09:06:24 PM 41.4600 -88.6220 69° East 279 321 6,900 -429 Descending FlightAware ADS-B
Tue 09:06:51 PM 41.4720 -88.5800 69° East 276 318 6,900  Level FlightAware ADS-B
Tue 09:07:07 PM 41.4790 -88.5560 69° East 275 316 6,900  Level FlightAware ADS-B
Tue 09:07:32 PM 41.4890 -88.5200 70° East 273 314 6,900  Level FlightAware ADS-B
Tue 09:07:55 PM 41.5010 -88.4790 69° East 274 315 6,900 -436 Level FlightAware ADS-B
Tue 09:08:27 PM 41.5100 -88.4270 77° East 275 316 6,500 -857 Descending FlightAware ADS-B
Tue 09:08:51 PM 41.5170 -88.3860 77° East 275 316 6,100 -632 Descending FlightAware ADS-B
Tue 09:09:24 PM 41.5250 -88.3340 78° East 270 311 5,900 -190 Descending FlightAware ADS-B
Tue 09:09:54 PM 41.5330 -88.2840 78° East 267 307 5,900 -429 Level FlightAware ADS-B
Tue 09:10:20 PM 41.5400 -88.2410 78° East 266 306 5,500 -875 Descending FlightAware ADS-B
Tue 09:10:42 PM 41.5440 -88.2090 81° East 266 306 5,200 -1,015 Descending FlightAware ADS-B
Tue 09:11:25 PM 41.5560 -88.1410 77° East 263 303 4,400 -904 Descending FlightAware ADS-B
Tue 09:11:55 PM 41.5700 -88.0970 67° East 248 285 4,100 -526 Descending FlightAware ADS-B
Tue 09:12:22 PM 41.5830 -88.0580 66° East 230 265 3,900 -267 Descending FlightAware ADS-B
Tue 09:12:40 PM 41.5900 -88.0370 66° East 220 253 3,900  Level FlightAware ADS-B
Tue 09:13:04 PM 41.5990 -88.0080 67° East 193 222 3,900 -316 Level FlightAware ADS-B
Tue 09:13:37 PM 41.6120 -87.9760 61° Northeast 173 199 3,600 -643 Descending FlightAware ADS-B
Tue 09:14:00 PM 41.6240 -87.9560 51° Northeast 166 191 3,300 -692 Descending FlightAware ADS-B
Tue 09:14:29 PM 41.6380 -87.9360 47° Northeast 158 182 3,000 -545 Descending FlightAware ADS-B
Tue 09:14:55 PM 41.6530 -87.9190 40° Northeast 159 183 2,800 -436 Descending FlightAware ADS-B
Tue 09:15:24 PM 41.6690 -87.8980 44° Northeast 158 182 2,600 -436 Descending FlightAware ADS-B
Tue 09:15:50 PM 41.6820 -87.8820 43° Northeast 159 183 2,400 -226 Descending FlightAware ADS-B
Tue 09:16:17 PM 41.6960 -87.8650 42° Northeast 160 184 2,400 -107 Level FlightAware ADS-B
Tue 09:16:46 PM 41.7130 -87.8430 44° Northeast 164 189 2,300 -526 Descending FlightAware ADS-B
Tue 09:17:14 PM 41.7260 -87.8260 44° Northeast 152 175 1,900 -818 Descending FlightAware ADS-B
Tue 09:17:30 PM 41.7350 -87.8150 42° Northeast 143 165 1,700 -714 Descending FlightAware ADS-B
Tue 09:17:56 PM 41.7480 -87.7990 43° Northeast 133 153 1,400 -667 Descending FlightAware ADS-B
Tue 09:18:24 PM 41.7590 -87.7840 45° Northeast 135 155 1,100 -327 Descending FlightAware ADS-B
Tue 09:18:51 PM 41.7700 -87.7710 41° Northeast 135 155 1,100 -102 Level FlightAware ADS-B
Tue 09:19:23 PM 41.7806 -87.7581 41° Northeast 148 170 1,000 -188 Descending Chicago Center
Tue 09:21:00 PM 41.7833 -87.7500 51° Northeast  Level FlightAware Approximate

Login

Don't have an account? Register now (free) for customized features, flight alerts, and more!